Wolcottville, IN (46795)

1:52 PM EDT on August 30, 2016 (GMT -0400)
Adams Lake | | Change Station

Elev 955 ft 41.56 °N, 85.32 °W | Updated 10 minutes ago

Mostly Cloudy
Mostly Cloudy
86.0 °F
Feels Like 91 °F
N
2.2
Wind Variable Wind from SSW

Today
High -- | Low -- °F
--% Chance of Precip.
Yesterday
High -- | Low -- °F
Precip. -- in
Pressure 30.14 in
Visibility 10.0 miles
Clouds Few 3100 ft
Mostly Cloudy 4900 ft
Mostly Cloudy 5000 ft
Heat Index 91 °F
Dew Point 70 °F
Humidity 60%
Rainfall 0.00 in
Snow Depth Not available.
7:05 AM 8:16 PM
Waning Crescent, 3% visible
METAR KANQ 301735Z AUTO 00000KT 10SM FEW031 BKN049 BKN050 27/22 A3014 RMK
Pressure 30.14 in
Visibility 10.0 miles
Clouds Few 3100 ft
Mostly Cloudy 4900 ft
Mostly Cloudy 5000 ft
Heat Index 91 °F
Dew Point 70 °F
Humidity 60%
Rainfall 0.00 in
Snow Depth Not available.
7:05 AM 8:16 PM
Waning Crescent, 3% visible
METAR KANQ 301735Z AUTO 00000KT 10SM FEW031 BKN049 BKN050 27/22 A3014 RMK

10-Day Weather Forecast

Almanac

Astronomy

Aug. 30, 2016 Rise Set
Actual Time
Civil Twilight
Nautical Twilight
Astronomical Twilight
Moon
Length of Visible Light
Length of Day
Tomorrow will be .
, % of the Moon is Illuminated

Today's Extremes

State Highs State Lows

Community

WunderPhotos

Upload Photos

1,935,853 photos uploaded!

WunderBlog® & News

Nearby

Air Quality

  Air Quality AQ Index Pollutant
Not available.

Snow Depth

Station Depth Elevation

Earthquake Activity

City Distance Mag. Time & Date
Minimum magnitude displayed is 2.5.

Coastal Water Temperatures

Place Temperature

Stations

Nearby Weather Stations

Station Location Temp. Windchill Dew Point Humidity Wind Precip. Elev Updated Type
                   

Watches & Warnings

There are currently no watches in effect.